.
WxDataArchive / Data Records for 2016-01-22
2016-01-21 January 2016 2016-01-23

Data Records for Friday, 22 January 2016

Time	Temp	Chill	HIndex	Humid	Dewpt	 Wind 	HiWind	WindDir	Rain 	Barom
-----	----	-----	------	-----	-----	------	------	-------	-----	-----
00:00	13.8	13.8	13.8	87	10.7	0	0	---	0.00	30.331 
00:05	13.8	13.8	13.8	87	10.7	0	0	---	0.00	30.331 
00:10	13.8	13.8	13.8	87	10.7	0	0	---	0.00	30.331 
00:15	14.0	14.0	14.0	87	10.9	0	0	---	0.00	30.330 
00:20	14.0	14.0	14.0	87	10.9	0	0	---	0.00	30.330 
00:25	13.8	13.8	13.8	87	10.7	0	0	---	0.00	30.330 
00:30	14.0	14.0	14.0	87	10.9	0	0	---	0.00	30.316 
00:35	14.0	14.0	14.0	87	10.9	0	0	---	0.00	30.316 
00:40	14.0	14.0	14.0	87	10.9	0	0	---	0.00	30.316 
00:45	14.0	14.0	14.0	87	10.9	0	0	---	0.00	30.317 
00:50	14.1	14.1	14.1	87	11.0	0	0	---	0.00	30.317 
00:55	14.3	14.3	14.3	87	11.2	0	0	---	0.00	30.317 
01:00	14.4	14.4	14.4	87	11.3	0	0	---	0.00	30.302 
01:05	14.4	14.4	14.4	87	11.3	0	0	---	0.00	30.302 
01:10	14.6	14.6	14.6	88	11.7	0	0	---	0.00	30.302 
01:15	14.9	14.9	14.9	88	12.0	0	0	---	0.00	30.296 
01:20	15.4	15.4	15.4	88	12.5	0	0	---	0.00	30.296 
01:25	15.7	15.7	15.7	88	12.8	0	1	90	0.00	30.296 
01:30	16.2	16.2	16.2	88	13.3	0	0	---	0.00	30.293 
01:35	16.5	16.5	16.5	88	13.6	0	0	---	0.00	30.293 
01:40	16.7	16.7	16.7	88	13.8	0	0	---	0.00	30.293 
01:45	16.9	16.9	16.9	88	14.0	0	0	---	0.00	30.281 
01:50	16.9	16.9	16.9	88	14.0	0	0	---	0.00	30.281 
01:55	16.9	16.9	16.9	88	14.0	0	0	---	0.00	30.281 
02:00	16.9	16.9	16.9	88	14.0	0	0	---	0.00	30.278 
02:05	16.9	16.9	16.9	88	14.0	0	0	---	0.00	30.278 
02:10	16.9	16.9	16.9	88	14.0	0	0	---	0.00	30.278 
02:15	16.9	16.9	16.9	88	14.0	0	0	---	0.00	30.264 
02:20	16.7	16.7	16.7	88	13.8	0	0	---	0.00	30.264 
02:25	16.7	16.7	16.7	88	13.8	0	0	---	0.00	30.264 
02:30	16.7	16.7	16.7	88	13.8	0	0	---	0.00	30.267 
02:35	16.9	16.9	16.9	88	14.0	0	0	---	0.00	30.267 
02:40	16.9	16.9	16.9	88	14.0	0	0	---	0.00	30.267 
02:45	17.0	17.0	17.0	88	14.1	0	0	---	0.00	30.264 
02:50	17.0	17.0	17.0	88	14.1	0	0	---	0.00	30.264 
02:55	16.9	16.9	16.9	88	14.0	0	0	---	0.00	30.264 
03:00	16.9	16.9	16.9	88	14.0	0	0	---	0.00	30.256 
03:05	16.9	16.9	16.9	88	14.0	0	0	---	0.00	30.256 
03:10	16.9	16.9	16.9	88	14.0	0	0	---	0.00	30.256 
03:15	16.7	16.7	16.7	88	13.8	0	0	---	0.00	30.250 
03:20	16.7	16.7	16.7	88	13.8	0	0	---	0.00	30.250 
03:25	16.7	16.7	16.7	88	13.8	0	0	---	0.00	30.250 
03:30	16.7	16.7	16.7	88	13.8	0	0	---	0.00	30.246 
03:35	16.7	16.7	16.7	88	13.8	0	0	---	0.00	30.246 
03:40	16.5	16.5	16.5	88	13.6	0	0	---	0.00	30.246 
03:45	16.7	16.7	16.7	88	13.8	0	0	---	0.00	30.251 
03:50	16.9	16.9	16.9	88	14.0	0	1	90	0.00	30.251 
03:55	17.2	17.2	17.2	88	14.3	0	1	90	0.00	30.251 
04:00	17.3	17.3	17.3	88	14.4	0	1	90	0.00	30.250 
04:05	17.5	17.5	17.5	88	14.6	0	0	---	0.00	30.250 
04:10	17.7	17.7	17.7	88	14.8	0	0	---	0.00	30.250 
04:15	17.7	17.7	17.7	88	14.8	0	0	---	0.00	30.250 
04:20	17.8	17.8	17.8	88	14.9	0	0	---	0.00	30.250 
04:25	17.8	17.8	17.8	88	14.9	0	1	90	0.00	30.250 
04:30	18.0	18.0	18.0	88	15.1	0	2	90	0.00	30.250 
04:35	18.1	18.1	18.1	87	14.9	0	2	90	0.00	30.250 
04:40	18.3	18.3	18.3	87	15.1	0	1	90	0.00	30.250 
04:45	18.4	18.4	18.4	87	15.2	1	4	90	0.00	30.249 
04:50	18.6	18.6	18.6	87	15.4	0	3	90	0.00	30.249 
04:55	18.9	18.9	18.9	87	15.7	1	3	90	0.00	30.249 
05:00	19.1	19.1	19.1	86	15.6	0	3	90	0.00	30.251 
05:05	19.2	19.2	19.2	86	15.7	0	2	90	0.00	30.251 
05:10	19.4	19.4	19.4	86	15.9	0	2	90	0.00	30.251 
05:15	19.4	19.4	19.4	85	15.6	0	1	90	0.00	30.252 
05:20	19.5	19.5	19.5	85	15.7	0	2	90	0.00	30.252 
05:25	19.5	19.5	19.5	85	15.7	0	2	90	0.00	30.252 
05:30	19.5	19.5	19.5	85	15.7	0	2	90	0.00	30.257 
05:35	19.7	19.7	19.7	85	15.9	0	2	90	0.00	30.257 
05:40	19.7	19.7	19.7	84	15.7	1	3	90	0.00	30.257 
05:45	19.7	19.7	19.7	84	15.7	1	4	90	0.00	30.262 
05:50	19.7	19.7	19.7	84	15.7	0	3	90	0.00	30.262 
05:55	19.7	19.7	19.7	84	15.7	1	3	90	0.00	30.262 
06:00	19.7	19.7	19.7	84	15.7	0	3	90	0.00	30.253 
06:05	19.7	19.7	19.7	84	15.7	0	2	90	0.00	30.253 
06:10	19.7	19.7	19.7	84	15.7	0	2	90	0.00	30.253 
06:15	19.7	19.7	19.7	84	15.7	0	3	90	0.00	30.256 
06:20	19.7	19.7	19.7	84	15.7	0	3	90	0.00	30.256 
06:25	19.9	19.9	19.9	84	15.9	0	4	90	0.00	30.256 
06:30	19.9	19.9	19.9	84	15.9	0	2	90	0.00	30.250 
06:35	19.9	19.9	19.9	84	15.9	0	1	90	0.00	30.250 
06:40	20.0	20.0	20.0	84	16.0	0	2	90	0.00	30.250 
06:45	20.0	20.0	20.0	84	16.0	0	1	90	0.00	30.248 
06:50	20.2	20.2	20.2	84	16.2	0	1	90	0.00	30.248 
06:55	20.2	20.2	20.2	84	16.2	0	2	90	0.00	30.248 
07:00	20.3	20.3	20.3	84	16.3	0	1	90	0.00	30.244 
07:05	20.3	20.3	20.3	83	16.0	0	3	90	0.00	30.244 
07:10	20.5	20.5	20.5	83	16.2	0	1	90	0.00	30.244 
07:15	20.5	20.5	20.5	83	16.2	0	1	90	0.00	30.251 
07:20	20.5	20.5	20.5	83	16.2	0	1	90	0.00	30.251 
07:25	20.6	20.6	20.6	83	16.3	0	1	90	0.00	30.251 
07:30	20.6	20.6	20.6	83	16.3	0	0	---	0.00	30.252 
07:35	20.8	20.8	20.8	83	16.5	0	1	90	0.00	30.252 
07:40	20.8	20.8	20.8	83	16.5	0	1	90	0.00	30.252 
07:45	21.0	21.0	21.0	83	16.7	0	1	90	0.00	30.251 
07:50	21.0	21.0	21.0	83	16.7	0	1	90	0.00	30.251 
07:55	21.1	21.1	21.1	83	16.8	0	1	90	0.00	30.251 
08:00	21.1	21.1	21.1	83	16.8	0	2	90	0.00	30.251 
08:05	21.3	21.3	21.3	83	17.0	0	1	90	0.00	30.251 
08:10	21.4	21.4	21.4	83	17.1	0	2	90	0.00	30.251 
08:15	21.4	21.4	21.4	83	17.1	0	2	90	0.00	30.255 
08:20	21.6	21.6	21.6	83	17.3	0	3	90	0.00	30.255 
08:25	21.8	21.8	21.8	83	17.4	1	4	90	0.00	30.255 
08:30	21.9	21.9	21.9	82	17.3	1	4	90	0.00	30.255 
08:35	22.2	22.2	22.2	82	17.6	2	5	112	0.00	30.255 
08:40	22.4	22.4	22.4	82	17.8	1	5	112	0.00	30.255 
08:45	22.4	22.4	22.4	82	17.8	1	4	45	0.00	30.253 
08:50	22.5	22.5	22.5	82	17.9	1	5	112	0.00	30.253 
08:55	22.5	22.5	22.5	82	17.9	1	7	112	0.00	30.253 
09:00	22.7	22.7	22.7	82	18.0	1	4	68	0.00	30.251 
09:05	22.7	22.7	22.7	82	18.0	1	6	112	0.00	30.251 
09:10	22.7	22.7	22.7	82	18.0	1	6	112	0.00	30.251 
09:15	22.9	22.9	22.9	82	18.2	1	4	68	0.00	30.251 
09:20	22.9	22.9	22.9	82	18.2	1	7	68	0.00	30.251 
09:25	23.0	23.0	23.0	82	18.3	2	6	112	0.00	30.251 
09:30	23.0	23.0	23.0	83	18.6	2	7	90	0.00	30.238 
09:35	23.2	23.2	23.2	83	18.8	1	5	90	0.00	30.238 
09:40	23.3	23.3	23.3	83	18.9	2	6	90	0.00	30.238 
09:45	23.5	23.5	23.5	83	19.1	1	5	90	0.00	30.234 
09:50	23.5	23.5	23.5	83	19.1	2	4	90	0.00	30.234 
09:55	23.6	23.6	23.6	83	19.2	1	5	22	0.00	30.234 
10:00	23.8	23.8	23.8	83	19.4	2	7	45	0.00	30.227 
10:05	23.8	23.8	23.8	83	19.4	2	6	90	0.00	30.227 
10:10	23.9	23.9	23.9	83	19.5	2	6	112	0.00	30.227 
10:15	24.1	24.1	24.1	84	20.0	1	5	90	0.00	30.224 
10:20	24.2	24.2	24.2	83	19.8	1	6	45	0.00	30.224 
10:25	24.2	24.2	24.2	83	19.8	2	5	22	0.00	30.224 
10:30	24.4	24.4	24.4	83	20.0	2	10	90	0.00	30.221 
10:35	24.5	24.5	24.5	83	20.1	2	12	68	0.00	30.221 
10:40	24.7	24.7	24.7	83	20.3	2	7	112	0.00	30.221 
10:45	24.7	24.7	24.7	83	20.3	3	10	112	0.00	30.218 
10:50	24.8	24.8	24.8	83	20.4	2	9	112	0.00	30.218 
10:55	25.0	25.0	25.0	83	20.6	2	6	112	0.00	30.218 
11:00	25.1	25.1	25.1	83	20.7	2	7	112	0.00	30.219 
11:05	25.3	25.3	25.3	82	20.6	2	10	112	0.00	30.219 
11:10	25.3	25.3	25.3	83	20.9	2	8	90	0.00	30.219 
11:15	25.4	25.4	25.4	83	21.0	1	6	112	0.00	30.222 
11:20	25.4	25.4	25.4	82	20.7	2	7	68	0.00	30.222 
11:25	25.4	25.4	25.4	82	20.7	2	6	90	0.00	30.222 
11:30	25.4	25.4	25.4	82	20.7	2	11	90	0.00	30.221 
11:35	25.6	25.6	25.6	82	20.9	2	6	90	0.00	30.221 
11:40	25.4	20.5	25.4	81	20.4	4	10	90	0.00	30.221 
11:45	25.6	25.6	25.6	82	20.9	2	9	112	0.00	30.219 
11:50	25.6	25.6	25.6	81	20.6	2	7	90	0.00	30.219 
11:55	25.6	25.6	25.6	81	20.6	2	5	112	0.00	30.219 
12:00	25.6	25.6	25.6	81	20.6	2	7	112	0.00	30.206 
12:05	25.7	25.7	25.7	81	20.7	1	3	45	0.00	30.206 
12:10	25.8	25.8	25.8	81	20.8	1	7	90	0.00	30.206 
12:15	26.0	26.0	26.0	81	21.0	2	7	112	0.00	30.203 
12:20	26.1	26.1	26.1	81	21.1	1	3	90	0.00	30.203 
12:25	26.1	26.1	26.1	81	21.1	2	9	90	0.00	30.203 
12:30	26.1	26.1	26.1	81	21.1	2	6	112	0.00	30.188 
12:35	26.3	26.3	26.3	81	21.3	2	9	90	0.00	30.188 
12:40	26.3	26.3	26.3	81	21.3	1	6	90	0.00	30.188 
12:45	26.3	26.3	26.3	81	21.3	2	10	90	0.00	30.179 
12:50	26.1	26.1	26.1	81	21.1	1	5	45	0.00	30.179 
12:55	26.3	26.3	26.3	81	21.3	1	4	112	0.00	30.179 
13:00	26.3	26.3	26.3	80	21.0	2	10	90	0.00	30.173 
13:05	26.3	26.3	26.3	81	21.3	1	4	90	0.00	30.173 
13:10	26.4	26.4	26.4	81	21.4	1	7	45	0.00	30.173 
13:15	26.4	26.4	26.4	81	21.4	2	5	90	0.00	30.169 
13:20	26.6	26.6	26.6	81	21.6	1	6	90	0.00	30.169 
13:25	26.6	26.6	26.6	80	21.3	1	5	90	0.00	30.169 
13:30	26.6	26.6	26.6	80	21.3	1	9	135	0.00	30.157 
13:35	26.6	26.6	26.6	80	21.3	1	6	90	0.00	30.157 
13:40	26.6	26.6	26.6	80	21.3	2	5	112	0.00	30.157 
13:45	26.4	26.4	26.4	79	20.8	2	6	90	0.00	30.152 
13:50	26.4	26.4	26.4	79	20.8	2	7	90	0.00	30.152 
13:55	26.6	26.6	26.6	79	21.0	2	4	90	0.00	30.152 
14:00	26.6	26.6	26.6	80	21.3	2	4	90	0.00	30.146 
14:05	26.6	26.6	26.6	80	21.3	1	6	45	0.00	30.146 
14:10	26.6	26.6	26.6	80	21.3	2	7	112	0.00	30.146 
14:15	26.6	26.6	26.6	80	21.3	2	7	22	0.00	30.138 
14:20	26.6	26.6	26.6	80	21.3	2	5	112	0.00	30.138 
14:25	26.6	26.6	26.6	80	21.3	2	6	112	0.00	30.138 
14:30	26.6	26.6	26.6	80	21.3	1	5	112	0.00	30.137 
14:35	26.7	26.7	26.7	80	21.4	2	9	112	0.00	30.137 
14:40	26.9	26.9	26.9	78	21.0	2	9	112	0.00	30.137 
14:45	26.9	26.9	26.9	78	21.0	3	11	90	0.00	30.136 
14:50	26.9	26.9	26.9	77	20.7	3	10	112	0.00	30.136 
14:55	26.9	26.9	26.9	77	20.7	2	5	45	0.00	30.136 
15:00	27.0	27.0	27.0	76	20.5	2	6	90	0.00	30.137 
15:05	26.9	26.9	26.9	77	20.7	2	8	22	0.00	30.137 
15:10	26.9	26.9	26.9	77	20.7	2	10	45	0.00	30.137 
15:15	26.9	26.9	26.9	77	20.7	2	11	112	0.00	30.138 
15:20	26.9	26.9	26.9	78	21.0	2	7	90	0.00	30.138 
15:25	26.9	26.9	26.9	78	21.0	2	7	45	0.00	30.138 
15:30	27.0	27.0	27.0	78	21.1	2	7	112	0.00	30.137 
15:35	27.2	27.2	27.2	77	21.0	2	7	112	0.00	30.137 
15:40	27.2	27.2	27.2	75	20.3	2	11	45	0.00	30.137 
15:45	27.2	27.2	27.2	75	20.3	3	7	68	0.00	30.139 
15:50	27.0	27.0	27.0	74	19.8	3	9	22	0.00	30.139 
15:55	26.9	26.9	26.9	74	19.7	2	6	90	0.00	30.139 
16:00	26.9	26.9	26.9	74	19.7	1	7	45	0.00	30.144 
16:05	26.9	26.9	26.9	74	19.7	1	4	45	0.00	30.144 
16:10	26.7	26.7	26.7	74	19.5	1	4	22	0.00	30.144 
16:15	26.7	26.7	26.7	74	19.5	2	9	45	0.00	30.136 
16:20	26.7	26.7	26.7	75	19.9	1	12	90	0.00	30.136 
16:25	26.7	26.7	26.7	74	19.5	2	8	90	0.00	30.136 
16:30	26.7	26.7	26.7	74	19.5	1	7	68	0.00	30.142 
16:35	26.7	26.7	26.7	74	19.5	1	5	112	0.00	30.142 
16:40	26.7	26.7	26.7	74	19.5	1	6	90	0.00	30.142 
16:45	26.7	26.7	26.7	73	19.2	2	6	90	0.00	30.139 
16:50	26.7	26.7	26.7	73	19.2	2	6	22	0.00	30.139 
16:55	26.7	26.7	26.7	72	18.9	2	7	45	0.00	30.139 
17:00	26.7	26.7	26.7	71	18.6	2	6	112	0.00	30.139 
17:05	26.9	26.9	26.9	70	18.4	2	10	112	0.00	30.139 
17:10	26.7	26.7	26.7	68	17.6	3	11	112	0.00	30.139 
17:15	26.9	26.9	26.9	67	17.4	2	6	68	0.00	30.142 
17:20	26.9	26.9	26.9	67	17.4	1	7	22	0.00	30.142 
17:25	26.9	26.9	26.9	67	17.4	2	7	45	0.00	30.142 
17:30	26.7	26.7	26.7	65	16.5	2	6	45	0.00	30.149 
17:35	26.7	26.7	26.7	65	16.5	2	6	68	0.00	30.149 
17:40	26.7	26.7	26.7	63	15.8	2	10	68	0.00	30.149 
17:45	26.4	26.4	26.4	63	15.5	1	5	45	0.00	30.150 
17:50	26.3	26.3	26.3	62	15.1	3	7	112	0.00	30.150 
17:55	26.0	26.0	26.0	62	14.8	1	5	45	0.00	30.150 
18:00	25.8	25.8	25.8	62	14.6	1	4	45	0.00	30.146 
18:05	25.6	25.6	25.6	62	14.4	0	2	45	0.00	30.146 
18:10	25.4	25.4	25.4	62	14.2	1	5	112	0.00	30.146 
18:15	25.4	25.4	25.4	62	14.2	1	6	0	0.00	30.154 
18:20	25.3	25.3	25.3	61	13.8	1	6	68	0.00	30.154 
18:25	25.1	25.1	25.1	61	13.6	1	4	22	0.00	30.154 
18:30	25.1	25.1	25.1	61	13.6	1	5	45	0.00	30.159 
18:35	25.0	25.0	25.0	61	13.5	2	7	45	0.00	30.159 
18:40	25.0	25.0	25.0	61	13.5	1	4	45	0.00	30.159 
18:45	24.8	24.8	24.8	61	13.3	1	4	90	0.00	30.162 
18:50	24.7	24.7	24.7	62	13.6	1	3	68	0.00	30.162 
18:55	24.5	24.5	24.5	62	13.4	0	3	112	0.00	30.162 
19:00	24.2	24.2	24.2	63	13.4	0	2	112	0.00	30.160 
19:05	24.1	24.1	24.1	64	13.7	0	3	45	0.00	30.160 
19:10	23.8	23.8	23.8	64	13.4	0	3	45	0.00	30.160 
19:15	23.6	23.6	23.6	65	13.6	0	2	22	0.00	30.162 
19:20	23.5	23.5	23.5	65	13.5	0	2	22	0.00	30.162 
19:25	23.3	23.3	23.3	65	13.3	1	3	68	0.00	30.162 
19:30	23.2	23.2	23.2	65	13.2	0	3	68	0.00	30.165 
19:35	23.2	23.2	23.2	65	13.2	0	4	0	0.00	30.165 
19:40	23.2	23.2	23.2	65	13.2	1	3	90	0.00	30.165 
19:45	23.2	23.2	23.2	64	12.9	0	3	68	0.00	30.169 
19:50	23.2	23.2	23.2	64	12.9	0	4	45	0.00	30.169 
19:55	23.2	23.2	23.2	63	12.5	2	6	112	0.00	30.169 
20:00	23.2	23.2	23.2	62	12.1	1	3	0	0.00	30.168 
20:05	23.3	23.3	23.3	61	11.9	2	7	68	0.00	30.168 
20:10	23.5	23.5	23.5	61	12.1	1	5	112	0.00	30.168 
20:15	23.3	23.3	23.3	60	11.5	1	3	68	0.00	30.168 
20:20	23.2	23.2	23.2	60	11.4	1	4	68	0.00	30.168 
20:25	23.2	23.2	23.2	60	11.4	1	6	68	0.00	30.168 
20:30	23.0	23.0	23.0	60	11.2	1	4	90	0.00	30.170 
20:35	23.0	23.0	23.0	60	11.2	0	3	68	0.00	30.170 
20:40	22.7	22.7	22.7	60	10.9	0	3	68	0.00	30.170 
20:45	22.5	22.5	22.5	60	10.7	0	2	0	0.00	30.168 
20:50	22.4	22.4	22.4	60	10.6	1	4	112	0.00	30.168 
20:55	22.4	22.4	22.4	60	10.6	0	3	45	0.00	30.168 
21:00	22.2	22.2	22.2	59	10.1	1	4	45	0.00	30.170 
21:05	22.2	22.2	22.2	59	10.1	1	6	45	0.00	30.170 
21:10	22.2	22.2	22.2	59	10.1	1	4	90	0.00	30.170 
21:15	22.2	22.2	22.2	59	10.1	1	4	68	0.00	30.168 
21:20	22.1	22.1	22.1	59	10.0	0	4	90	0.00	30.168 
21:25	21.9	21.9	21.9	59	9.8	0	3	45	0.00	30.168 
21:30	21.9	21.9	21.9	59	9.8	0	4	68	0.00	30.167 
21:35	21.8	21.8	21.8	59	9.7	0	3	68	0.00	30.167 
21:40	21.8	21.8	21.8	59	9.7	0	1	68	0.00	30.167 
21:45	21.6	21.6	21.6	59	9.5	0	3	135	0.00	30.167 
21:50	21.6	21.6	21.6	59	9.5	0	1	135	0.00	30.167 
21:55	21.6	21.6	21.6	59	9.5	0	4	22	0.00	30.167 
22:00	21.6	21.6	21.6	59	9.5	0	2	112	0.00	30.164 
22:05	21.4	21.4	21.4	59	9.3	0	3	45	0.00	30.164 
22:10	21.4	21.4	21.4	59	9.3	0	2	45	0.00	30.164 
22:15	21.4	21.4	21.4	59	9.3	0	2	45	0.00	30.163 
22:20	21.3	21.3	21.3	59	9.2	0	4	158	0.00	30.163 
22:25	21.3	21.3	21.3	59	9.2	1	3	158	0.00	30.163 
22:30	21.4	21.4	21.4	59	9.3	1	3	22	0.00	30.162 
22:35	21.6	21.6	21.6	59	9.5	1	3	45	0.00	30.162 
22:40	21.6	21.6	21.6	59	9.5	1	4	112	0.00	30.162 
22:45	21.6	21.6	21.6	59	9.5	1	7	0	0.00	30.164 
22:50	21.6	21.6	21.6	59	9.5	1	4	22	0.00	30.164 
22:55	21.6	21.6	21.6	59	9.5	1	6	68	0.00	30.164 
23:00	21.6	21.6	21.6	60	9.9	1	3	45	0.00	30.164 
23:05	21.4	21.4	21.4	60	9.7	1	4	22	0.00	30.164 
23:10	21.4	21.4	21.4	60	9.7	1	4	338	0.00	30.164 
23:15	21.4	21.4	21.4	61	10.1	1	5	338	0.00	30.167 
23:20	21.4	21.4	21.4	61	10.1	1	3	90	0.00	30.167 
23:25	21.4	21.4	21.4	61	10.1	1	4	0	0.00	30.167 
23:30	21.4	21.4	21.4	62	10.4	1	5	0	0.00	30.161 
23:35	21.4	21.4	21.4	62	10.4	1	6	338	0.00	30.161 
23:40	21.4	21.4	21.4	62	10.4	1	5	338	0.00	30.161 
23:45	21.6	21.6	21.6	62	10.6	1	6	90	0.00	30.163 
23:50	21.6	21.6	21.6	62	10.6	1	5	45	0.00	30.163 
23:55	21.6	21.6	21.6	62	10.6	1	6	135	0.00	30.163 

CoCoRaHS
IN-AL-39
A2 Web Hosting
Creative Commons License
GoDaddy
search engine by freefind advanced

loaded 2018-11-17 06:19:34 • last modified 2010-11-18 10:43:29
Privacy PolicyDisclaimer
• wx.awcolley.com is powered by PmWiki v.2002016 •
• all content (unless otherwise noted) © 2018 A W Colley